Time;durP1;ratioP1;P1;durP2;ratioP2;P2;SDS_P1;SDS_P2;PMS_P1;PMS_P2;Temp;Humidity;BMP_temperature;BMP_pressure;BME280_temperature;BME280_humidity;BME280_pressure;Samples;Min_cycle;Max_cycle;Signal;HPM_P1;HPM_P2
2023/04/28 00:02:16;;;;;;;0.10;0.10;;;;;;;12.65;49.16;101452.09;5077556;28;20029;-83
2023/04/28 00:04:42;;;;;;;0.10;0.10;;;;;;;12.60;49.76;101445.09;5078863;28;20044;-82
2023/04/28 00:07:08;;;;;;;0.10;0.10;;;;;;;12.54;49.14;101441.69;5085001;28;20033;-82
2023/04/28 00:09:34;;;;;;;0.10;0.10;;;;;;;12.49;48.95;101439.13;5080061;28;20083;-84
2023/04/28 00:12:01;;;;;;;1.30;0.75;;;;;;;12.45;48.79;101437.44;5077346;28;20480;-83
2023/04/28 00:14:27;;;;;;;0.10;0.10;;;;;;;12.40;49.23;101429.53;5071146;28;20032;-82
2023/04/28 00:16:56;;;;;;;0.10;0.10;;;;;;;12.38;49.51;101423.34;5069760;28;20059;-83
2023/04/28 00:19:22;;;;;;;0.10;0.10;;;;;;;12.37;49.37;101418.06;5070579;28;20025;-82
2023/04/28 00:21:48;;;;;;;0.10;0.10;;;;;;;12.34;50.64;101416.34;5074688;28;20515;-82
2023/04/28 00:24:14;;;;;;;1.20;1.10;;;;;;;12.34;48.73;101418.16;5068241;28;20032;-84
2023/04/28 00:26:41;;;;;;;0.10;0.10;;;;;;;12.33;49.89;101421.72;5065329;28;20021;-82
2023/04/28 00:29:07;;;;;;;0.08;0.08;;;;;;;12.34;49.51;101419.00;5070227;28;20116;-82
2023/04/28 00:31:34;;;;;;;0.10;0.10;;;;;;;12.35;49.47;101419.88;5071506;28;20028;-83
2023/04/28 00:34:00;;;;;;;0.10;0.10;;;;;;;12.33;49.92;101408.41;5068905;28;20033;-84
2023/04/28 00:36:30;;;;;;;0.10;0.10;;;;;;;12.34;50.12;101399.56;5071688;28;20037;-84
2023/04/28 00:38:57;;;;;;;0.05;0.05;;;;;;;12.34;49.46;101392.44;5068978;28;20037;-83
2023/04/28 00:41:23;;;;;;;0.10;0.10;;;;;;;12.36;50.06;101389.75;5073347;28;20085;-82
2023/04/28 00:43:50;;;;;;;0.10;0.10;;;;;;;12.36;49.22;101384.44;5075871;28;20033;-82
2023/04/28 00:49:00;;;;;;;0.22;0.20;;;;;;;12.35;50.30;101388.00;5086141;27;20413;-81
2023/04/28 00:51:27;;;;;;;0.10;0.10;;;;;;;12.34;51.07;101387.13;5074117;28;20093;-81
2023/04/28 00:53:54;;;;;;;0.10;0.10;;;;;;;12.32;51.11;101388.91;5065663;28;20063;-80
2023/04/28 00:56:20;;;;;;;0.10;0.10;;;;;;;12.30;51.11;101381.00;5070038;28;20044;-81
2023/04/28 00:58:47;;;;;;;0.22;0.22;;;;;;;12.30;50.99;101374.81;5070141;28;20028;-79
2023/04/28 01:01:13;;;;;;;0.10;0.10;;;;;;;12.29;50.67;101373.06;5066989;28;20024;-81
2023/04/28 01:03:40;;;;;;;0.10;0.10;;;;;;;12.28;50.00;101369.50;5071210;28;20035;-82
2023/04/28 01:06:08;;;;;;;0.10;0.10;;;;;;;12.28;50.72;101371.28;5070337;28;20050;-81
2023/04/28 01:08:36;;;;;;;0.10;0.10;;;;;;;12.27;50.70;101370.44;5061918;28;20025;-82
2023/04/28 01:11:03;;;;;;;0.22;0.22;;;;;;;12.27;51.08;101362.47;5062171;28;20033;-83
2023/04/28 01:13:29;;;;;;;0.10;0.10;;;;;;;12.23;52.17;101355.44;5071111;28;20028;-80
2023/04/28 01:15:55;;;;;;;0.10;0.10;;;;;;;12.22;51.43;101345.69;5060231;28;20036;-80
2023/04/28 01:18:22;;;;;;;0.38;0.38;;;;;;;12.22;51.57;101337.72;5066679;28;20031;-82
2023/04/28 01:20:48;;;;;;;2.65;0.45;;;;;;;12.20;51.62;101339.56;5065302;28;20028;-81
2023/04/28 01:23:16;;;;;;;0.00;0.00;;;;;;;12.22;50.82;101344.84;5059661;28;20106;-82
2023/04/28 01:25:43;;;;;;;0.10;0.10;;;;;;;12.21;51.66;101336.00;5071862;28;20039;-82
2023/04/28 01:28:10;;;;;;;0.10;0.10;;;;;;;12.23;51.05;101342.16;5065956;28;20024;-81
2023/04/28 01:30:36;;;;;;;0.63;0.63;;;;;;;12.25;50.85;101324.41;5082180;28;20029;-82
2023/04/28 01:33:03;;;;;;;0.30;0.30;;;;;;;12.26;50.89;101326.16;5078764;28;20313;-82
2023/04/28 01:35:30;;;;;;;0.10;0.10;;;;;;;12.27;50.97;101311.97;5073713;28;20095;-82
2023/04/28 01:37:56;;;;;;;0.10;0.10;;;;;;;12.27;51.63;101316.41;5073822;28;20607;-84
2023/04/28 01:40:22;;;;;;;0.10;0.10;;;;;;;12.28;52.01;101308.41;5071802;28;20032;-84
2023/04/28 01:42:48;;;;;;;0.10;0.10;;;;;;;12.28;51.40;101316.38;5074392;28;20025;-83
2023/04/28 01:45:14;;;;;;;0.00;0.00;;;;;;;12.30;51.28;101319.00;5074524;28;20033;-82
2023/04/28 01:47:40;;;;;;;0.10;0.10;;;;;;;12.29;52.18;101304.84;5072515;28;20029;-83
2023/04/28 01:50:07;;;;;;;0.10;0.10;;;;;;;12.30;50.53;101298.63;5063656;28;20500;-82
2023/04/28 01:52:33;;;;;;;0.10;0.10;;;;;;;12.32;50.97;101300.38;5068857;28;20032;-83
2023/04/28 01:54:59;;;;;;;0.10;0.10;;;;;;;12.33;51.45;101288.84;5066909;28;20060;-83
2023/04/28 01:57:27;;;;;;;0.10;0.10;;;;;;;12.35;51.06;101287.00;5070177;28;20509;-79
2023/04/28 01:59:54;;;;;;;0.40;0.40;;;;;;;12.36;51.40;101280.78;5050313;28;20044;-81
2023/04/28 02:02:20;;;;;;;0.15;0.15;;;;;;;12.34;51.36;101282.63;5053968;28;20033;-79
2023/04/28 02:04:46;;;;;;;0.57;0.57;;;;;;;12.33;51.16;101279.09;5048855;28;20021;-80
2023/04/28 02:07:12;;;;;;;0.10;0.10;;;;;;;12.34;51.73;101282.63;5049711;28;20037;-80
2023/04/28 02:09:38;;;;;;;0.10;0.10;;;;;;;12.34;51.81;101291.47;5051872;28;20029;-82
2023/04/28 02:12:04;;;;;;;0.10;0.10;;;;;;;12.35;51.86;101287.00;5049790;28;20040;-83
2023/04/28 02:14:31;;;;;;;0.10;0.10;;;;;;;12.36;52.02;101275.47;5052805;28;20405;-83
2023/04/28 02:16:58;;;;;;;0.10;0.10;;;;;;;12.36;51.53;101264.84;5046021;28;20053;-82
2023/04/28 02:19:24;;;;;;;0.00;0.00;;;;;;;12.33;51.49;101257.81;5050850;28;20033;-82
2023/04/28 02:21:50;;;;;;;0.10;0.10;;;;;;;12.32;51.74;101264.03;5053898;28;20042;-82
2023/04/28 02:24:16;;;;;;;0.20;0.20;;;;;;;12.30;51.54;101258.75;5051914;28;20033;-81
2023/04/28 02:26:42;;;;;;;0.10;0.10;;;;;;;12.29;51.50;101262.31;5050402;28;20040;-81
2023/04/28 02:29:08;;;;;;;0.10;0.10;;;;;;;12.28;51.53;101255.25;5054524;28;20033;-81
2023/04/28 02:31:34;;;;;;;0.10;0.10;;;;;;;12.32;51.71;101247.25;5043250;28;20033;-82
2023/04/28 02:34:01;;;;;;;0.10;0.10;;;;;;;12.33;51.31;101244.53;5049490;28;20057;-81
2023/04/28 02:36:27;;;;;;;0.10;0.10;;;;;;;12.35;51.23;101239.19;5056236;28;20036;-80
2023/04/28 02:38:53;;;;;;;0.25;0.25;;;;;;;12.33;51.29;101227.72;5051548;28;20080;-81
2023/04/28 02:41:19;;;;;;;0.10;0.10;;;;;;;12.36;51.39;101225.00;5052738;28;20052;-81
2023/04/28 02:43:45;;;;;;;0.10;0.10;;;;;;;12.38;50.92;101228.50;5048588;28;20036;-82
2023/04/28 02:46:11;;;;;;;0.10;0.10;;;;;;;12.37;51.36;101221.44;5045109;28;20043;-82
2023/04/28 02:48:37;;;;;;;4.00;1.65;;;;;;;12.36;50.86;101217.91;5053876;28;20035;-82
2023/04/28 02:51:04;;;;;;;0.15;0.15;;;;;;;12.39;50.75;101216.97;5045589;28;20068;-83
2023/04/28 02:53:30;;;;;;;0.47;0.38;;;;;;;12.39;50.86;101220.50;5048140;28;20040;-82
2023/04/28 02:55:57;;;;;;;0.10;0.10;;;;;;;12.40;50.80;101213.38;5052272;28;20059;-82
2023/04/28 02:58:23;;;;;;;0.20;0.20;;;;;;;12.39;51.19;101211.66;5050597;28;20025;-81
2023/04/28 03:00:49;;;;;;;0.00;0.00;;;;;;;12.37;50.84;101210.81;5050388;28;20029;-81
2023/04/28 03:03:15;;;;;;;0.00;0.00;;;;;;;12.38;51.04;101215.22;5050751;28;20021;-82
2023/04/28 03:05:41;;;;;;;0.10;0.10;;;;;;;12.39;51.43;101223.16;5047081;28;20037;-82
2023/04/28 03:08:07;;;;;;;0.10;0.10;;;;;;;12.41;51.30;101215.13;5047779;28;20091;-81
2023/04/28 03:10:33;;;;;;;0.10;0.10;;;;;;;12.41;50.74;101212.47;5048461;28;20033;-82
2023/04/28 03:12:59;;;;;;;0.95;0.95;;;;;;;12.41;50.85;101213.38;5055693;28;20020;-81
2023/04/28 03:15:25;;;;;;;0.10;0.10;;;;;;;12.42;51.05;101208.91;5059864;28;20028;-80
2023/04/28 03:17:52;;;;;;;0.55;0.55;;;;;;;12.41;50.82;101217.78;5053508;28;20062;-81
2023/04/28 03:20:18;;;;;;;0.08;0.08;;;;;;;12.42;51.30;101214.25;5050119;28;20542;-81
2023/04/28 03:22:44;;;;;;;0.10;0.10;;;;;;;12.43;51.04;101218.66;5059026;28;20032;-82
2023/04/28 03:25:10;;;;;;;0.30;0.30;;;;;;;12.45;50.81;101220.38;5048003;28;20108;-81
2023/04/28 03:27:36;;;;;;;0.10;0.10;;;;;;;12.44;50.38;101207.97;5058518;28;20027;-83
2023/04/28 03:30:02;;;;;;;0.10;0.10;;;;;;;12.43;50.78;101205.38;5053531;28;20092;-82
2023/04/28 03:32:28;;;;;;;0.10;0.10;;;;;;;12.42;50.83;101199.19;5053672;28;20502;-82
2023/04/28 03:34:55;;;;;;;0.10;0.10;;;;;;;12.42;51.00;101198.28;5052213;28;20029;-82
2023/04/28 03:37:21;;;;;;;0.10;0.10;;;;;;;12.40;50.42;101201.00;5054181;28;20033;-81
2023/04/28 03:39:47;;;;;;;0.10;0.10;;;;;;;12.40;50.23;101194.78;5054452;28;20117;-82
2023/04/28 03:42:13;;;;;;;0.10;0.10;;;;;;;12.23;50.65;101177.44;5051653;28;20441;-83
2023/04/28 03:44:39;;;;;;;0.10;0.10;;;;;;;12.28;51.03;101180.00;5054233;28;20043;-82
2023/04/28 03:47:05;;;;;;;0.10;0.10;;;;;;;12.30;50.86;101189.69;5057207;28;20044;-80
2023/04/28 03:49:31;;;;;;;0.08;0.08;;;;;;;12.30;50.69;101176.41;5045538;28;20033;-82
2023/04/28 03:51:57;;;;;;;0.10;0.10;;;;;;;12.30;51.00;101171.09;5046720;28;20044;-81
2023/04/28 03:54:23;;;;;;;0.10;0.10;;;;;;;12.34;50.54;101176.34;5054154;28;20037;-80
2023/04/28 03:56:49;;;;;;;0.20;0.20;;;;;;;12.35;51.10;101170.09;5051876;28;20107;-80
2023/04/28 03:59:16;;;;;;;0.10;0.10;;;;;;;12.35;50.62;101170.09;5050268;28;20025;-82
2023/04/28 04:01:42;;;;;;;0.10;0.10;;;;;;;12.36;50.77;101167.44;5046546;28;20036;-82
2023/04/28 04:04:08;;;;;;;0.10;0.10;;;;;;;12.39;50.53;101162.03;5049275;28;20090;-82
2023/04/28 04:06:34;;;;;;;0.10;0.10;;;;;;;12.39;51.37;101156.72;5044912;28;20407;-81
2023/04/28 04:09:00;;;;;;;0.10;0.10;;;;;;;12.40;51.49;101155.81;5051555;28;20029;-81
2023/04/28 04:11:26;;;;;;;0.10;0.10;;;;;;;12.39;51.14;101150.53;5056715;28;20474;-82
2023/04/28 04:13:52;;;;;;;1.00;1.00;;;;;;;12.40;50.77;101133.66;5049606;28;20048;-82
2023/04/28 04:16:20;;;;;;;0.03;0.03;;;;;;;12.39;50.48;101134.59;5059697;28;20091;-83
2023/04/28 04:18:46;;;;;;;0.00;0.00;;;;;;;12.37;50.61;101131.09;5038997;28;20040;-82
2023/04/28 04:21:12;;;;;;;0.10;0.10;;;;;;;12.34;50.55;101131.19;5046317;28;20090;-83
2023/04/28 04:23:38;;;;;;;0.88;0.88;;;;;;;12.32;50.43;101117.03;5053461;28;20103;-80
2023/04/28 04:26:05;;;;;;;0.10;0.10;;;;;;;12.28;50.32;101119.75;5043845;28;20548;-81
2023/04/28 04:28:31;;;;;;;0.10;0.10;;;;;;;12.27;50.42;101107.41;5050034;28;20032;-81
2023/04/28 04:30:57;;;;;;;0.10;0.10;;;;;;;12.18;51.05;101110.25;5048515;28;20261;-82
2023/04/28 04:33:23;;;;;;;0.63;0.63;;;;;;;12.18;50.86;101107.59;5043224;28;20441;-81
2023/04/28 04:35:49;;;;;;;0.00;0.00;;;;;;;12.19;50.85;101104.03;5055580;28;20037;-82
2023/04/28 04:38:15;;;;;;;0.30;0.30;;;;;;;12.19;51.11;101109.34;5066603;28;20528;-83
2023/04/28 04:40:41;;;;;;;0.10;0.10;;;;;;;12.21;50.89;101119.94;5059136;28;20032;-82
2023/04/28 04:43:07;;;;;;;0.10;0.10;;;;;;;12.22;50.97;101114.56;5056673;28;20056;-80
2023/04/28 04:45:34;;;;;;;0.00;0.00;;;;;;;12.22;51.74;101116.38;5054715;28;20433;-81
2023/04/28 04:48:00;;;;;;;0.70;0.45;;;;;;;12.26;51.28;101129.56;5054031;28;20029;-81
2023/04/28 04:50:26;;;;;;;0.30;0.30;;;;;;;12.29;51.26;101140.09;5046481;28;20090;-78
2023/04/28 04:52:55;;;;;;;0.10;0.10;;;;;;;12.34;51.81;101133.84;5054572;28;20032;-80
2023/04/28 04:55:21;;;;;;;0.00;0.00;;;;;;;12.43;50.67;101139.78;5063076;28;20028;-81
2023/04/28 04:57:47;;;;;;;0.10;0.10;;;;;;;12.45;51.29;101139.78;5053395;28;20021;-82
2023/04/28 05:00:15;;;;;;;0.00;0.00;;;;;;;12.47;51.12;101137.94;5046985;28;20037;-81
2023/04/28 05:02:41;;;;;;;0.10;0.10;;;;;;;12.45;51.25;101124.69;5046423;28;20025;-82
2023/04/28 05:05:08;;;;;;;0.10;0.10;;;;;;;12.46;51.45;101130.88;5046774;28;20071;-82
2023/04/28 05:07:34;;;;;;;0.52;0.52;;;;;;;12.42;51.49;101130.09;5047758;28;20115;-82
2023/04/28 05:10:00;;;;;;;0.10;0.10;;;;;;;12.43;51.06;101130.94;5050241;28;20116;-81
2023/04/28 05:12:27;;;;;;;0.10;0.10;;;;;;;12.44;51.33;101135.38;5048124;28;20045;-79
2023/04/28 05:14:53;;;;;;;1.48;1.38;;;;;;;12.39;51.92;101139.91;5051805;28;20037;-78
2023/04/28 05:17:19;;;;;;;0.10;0.10;;;;;;;12.42;51.92;101139.84;5046456;28;20035;-79
2023/04/28 05:19:45;;;;;;;0.10;0.10;;;;;;;12.41;51.32;101140.72;5044175;28;20495;-79
2023/04/28 05:22:11;;;;;;;0.10;0.10;;;;;;;12.40;51.53;101133.66;5049164;28;20076;-81
2023/04/28 05:24:37;;;;;;;0.10;0.10;;;;;;;12.35;53.41;101122.28;5044803;28;20028;-80
2023/04/28 05:27:03;;;;;;;0.10;0.10;;;;;;;12.34;53.83;101136.50;5044412;28;20080;-79
2023/04/28 05:29:29;;;;;;;0.00;0.00;;;;;;;12.30;55.37;101141.84;5043390;28;20093;-81
2023/04/28 05:31:55;;;;;;;0.10;0.10;;;;;;;12.27;55.45;101138.41;5045190;28;20108;-80
2023/04/28 05:34:21;;;;;;;0.40;0.40;;;;;;;12.23;54.13;101124.31;5052384;28;20033;-81
2023/04/28 05:36:48;;;;;;;0.45;0.45;;;;;;;12.18;56.17;101114.72;5054208;28;20486;-80
2023/04/28 05:39:14;;;;;;;0.10;0.10;;;;;;;12.14;55.05;101113.91;5056353;28;20091;-81
2023/04/28 05:41:40;;;;;;;0.10;0.10;;;;;;;12.09;56.57;101131.72;5051979;28;20035;-82
2023/04/28 05:44:06;;;;;;;0.10;0.10;;;;;;;12.04;55.34;101113.22;5055873;28;20077;-82
2023/04/28 05:46:32;;;;;;;0.17;0.17;;;;;;;12.02;55.08;101104.41;5050804;28;20033;-81
2023/04/28 05:48:58;;;;;;;0.10;0.10;;;;;;;11.96;55.54;101110.75;5051714;28;20040;-80
2023/04/28 05:51:26;;;;;;;0.13;0.13;;;;;;;11.91;55.41;101086.03;5055091;28;20029;-82
2023/04/28 05:53:52;;;;;;;0.00;0.00;;;;;;;11.84;57.09;101083.53;5051552;28;20032;-79
2023/04/28 05:56:18;;;;;;;0.17;0.17;;;;;;;11.81;57.46;101090.66;5051360;28;20067;-76
2023/04/28 05:58:44;;;;;;;0.22;0.22;;;;;;;11.77;58.28;101090.75;5049916;28;20036;-78
2023/04/28 06:01:10;;;;;;;0.10;0.10;;;;;;;11.74;57.69;101093.47;5060035;28;20032;-77
2023/04/28 06:03:36;;;;;;;0.10;0.10;;;;;;;11.77;57.42;101093.41;5054643;28;20498;-77
2023/04/28 06:06:03;;;;;;;0.10;0.10;;;;;;;11.77;58.13;101096.06;5061148;28;20418;-82
2023/04/28 06:08:29;;;;;;;0.20;0.20;;;;;;;11.81;57.68;101087.13;5047226;28;20037;-81
2023/04/28 06:10:55;;;;;;;0.10;0.10;;;;;;;11.84;58.28;101089.72;5050538;28;20032;-83
2023/04/28 06:13:21;;;;;;;0.10;0.10;;;;;;;11.83;59.33;101087.97;5041063;28;20041;-83
2023/04/28 06:15:47;;;;;;;0.10;0.10;;;;;;;11.92;58.46;101095.72;5050273;28;20060;-82
2023/04/28 06:18:15;;;;;;;0.20;0.20;;;;;;;12.01;58.05;101099.13;5050584;28;20512;-82
2023/04/28 06:20:41;;;;;;;0.10;0.10;;;;;;;12.09;58.12;101099.84;5044837;28;20033;-83
2023/04/28 06:23:08;;;;;;;0.10;0.10;;;;;;;12.16;58.92;101101.44;5062088;28;20075;-80
2023/04/28 06:25:35;;;;;;;0.20;0.20;;;;;;;12.19;59.41;101096.06;5059255;28;20040;-82
2023/04/28 06:28:02;;;;;;;0.17;0.17;;;;;;;12.25;58.62;101089.72;5044148;28;20092;-80
2023/04/28 06:30:28;;;;;;;0.17;0.15;;;;;;;12.26;59.10;101086.16;5041474;28;20095;-80
2023/04/28 06:32:56;;;;;;;0.73;0.73;;;;;;;12.30;58.91;101086.06;5058709;28;20035;-79
2023/04/28 06:35:22;;;;;;;0.10;0.10;;;;;;;12.33;60.22;101100.19;5054436;28;20130;-80
2023/04/28 06:37:49;;;;;;;0.10;0.10;;;;;;;12.40;60.06;101093.81;5038355;28;20026;-81
2023/04/28 06:40:15;;;;;;;0.10;0.10;;;;;;;12.48;60.10;101091.84;5045471;28;20510;-82
2023/04/28 06:42:41;;;;;;;0.10;0.10;;;;;;;12.58;59.87;101087.19;5064931;28;20032;-81
2023/04/28 06:45:07;;;;;;;0.10;0.10;;;;;;;12.67;58.96;101083.44;5066259;28;20079;-81
2023/04/28 06:47:35;;;;;;;0.10;0.10;;;;;;;12.74;59.61;101087.69;5039562;28;20036;-82
2023/04/28 06:50:01;;;;;;;0.10;0.10;;;;;;;12.79;59.12;101075.16;5051091;28;20021;-82
2023/04/28 06:52:28;;;;;;;0.03;0.03;;;;;;;12.83;59.24;101075.94;5068674;28;20075;-82
2023/04/28 06:54:54;;;;;;;0.20;0.20;;;;;;;12.86;58.10;101073.19;5057547;28;20048;-78
2023/04/28 06:57:20;;;;;;;0.10;0.10;;;;;;;12.92;60.13;101073.94;5056502;28;20098;-81
2023/04/28 06:59:47;;;;;;;0.10;0.10;;;;;;;13.05;60.41;101065.63;5062671;28;20028;-81
2023/04/28 07:02:13;;;;;;;0.10;0.10;;;;;;;13.18;59.38;101060.84;5045271;28;20884;-82
2023/04/28 07:04:39;;;;;;;0.35;0.35;;;;;;;13.24;59.83;101060.66;5053837;28;20025;-81
2023/04/28 07:07:07;;;;;;;0.35;0.35;;;;;;;13.31;60.53;101069.34;5046421;28;20109;-80
2023/04/28 07:09:34;;;;;;;0.35;0.35;;;;;;;13.37;60.20;101055.88;5055603;28;20379;-82
2023/04/28 07:12:00;;;;;;;0.00;0.00;;;;;;;13.37;61.08;101071.84;5059283;28;20037;-82
2023/04/28 07:14:26;;;;;;;0.10;0.10;;;;;;;13.42;60.25;101064.63;5064126;28;20063;-83
2023/04/28 07:16:52;;;;;;;0.10;0.10;;;;;;;13.44;59.95;101065.47;5054151;28;20037;-83
2023/04/28 07:19:18;;;;;;;0.30;0.30;;;;;;;13.47;59.55;101062.72;5053121;28;20029;-83
2023/04/28 07:21:45;;;;;;;0.15;0.15;;;;;;;13.47;59.70;101068.06;5057117;28;20608;-81
2023/04/28 07:24:11;;;;;;;0.38;0.38;;;;;;;13.44;60.06;101078.78;5061280;28;20037;-81
2023/04/28 07:26:37;;;;;;;0.77;0.77;;;;;;;13.39;61.31;101075.38;5062172;28;20032;-81
2023/04/28 07:29:03;;;;;;;0.47;0.47;;;;;;;13.40;61.27;101069.13;5053444;28;20032;-82
2023/04/28 07:31:29;;;;;;;0.40;0.40;;;;;;;13.42;60.27;101070.84;5055303;28;20043;-83
2023/04/28 07:34:02;;;;;;;0.68;0.68;;;;;;;13.47;61.55;101073.38;5061962;28;20036;-81
2023/04/28 07:36:28;;;;;;;0.40;0.40;;;;;;;13.51;61.27;101075.03;5058718;28;20032;-83
2023/04/28 07:38:54;;;;;;;2.35;0.55;;;;;;;13.56;61.72;101073.09;5059137;28;20477;-82
2023/04/28 07:41:21;;;;;;;0.50;0.50;;;;;;;13.61;60.68;101083.63;5054682;28;20099;-83
2023/04/28 07:43:47;;;;;;;0.00;0.00;;;;;;;13.66;60.51;101078.16;5053159;28;20029;-83
2023/04/28 07:46:13;;;;;;;1.20;1.05;;;;;;;13.67;62.70;101079.88;5052083;28;20580;-82
2023/04/28 07:48:39;;;;;;;0.10;0.10;;;;;;;13.73;62.05;101085.94;5065726;28;20510;-79
2023/04/28 07:51:05;;;;;;;0.10;0.10;;;;;;;13.77;62.24;101081.38;5064143;28;20032;-83
2023/04/28 07:53:31;;;;;;;0.35;0.35;;;;;;;13.79;62.08;101071.53;5060813;28;20407;-81
2023/04/28 07:55:58;;;;;;;0.10;0.10;;;;;;;13.86;62.47;101070.44;5069307;28;20087;-82
2023/04/28 07:58:24;;;;;;;0.30;0.30;;;;;;;13.93;62.36;101064.94;5054221;28;20040;-83
2023/04/28 08:00:50;;;;;;;0.50;0.50;;;;;;;14.01;62.23;101063.78;5065247;28;20029;-81
2023/04/28 08:03:16;;;;;;;0.10;0.10;;;;;;;14.11;62.28;101069.69;5064959;28;20029;-81
2023/04/28 08:05:43;;;;;;;0.10;0.10;;;;;;;14.18;62.73;101071.25;5065134;28;20025;-83
2023/04/28 08:08:10;;;;;;;0.10;0.10;;;;;;;14.21;63.39;101071.16;5077297;28;20071;-81
2023/04/28 08:10:39;;;;;;;0.10;0.10;;;;;;;14.29;62.12;101067.38;5064530;28;20033;-81
2023/04/28 08:13:05;;;;;;;0.32;0.32;;;;;;;14.32;62.56;101067.28;5049200;28;20116;-82
2023/04/28 08:15:31;;;;;;;0.25;0.25;;;;;;;14.35;63.31;101075.19;5054668;28;20028;-82
2023/04/28 08:17:57;;;;;;;0.10;0.10;;;;;;;14.38;63.17;101067.06;5057423;28;20040;-82
2023/04/28 08:20:23;;;;;;;0.68;0.68;;;;;;;14.38;63.14;101067.94;5052192;28;20548;-81
2023/04/28 08:22:49;;;;;;;0.10;0.10;;;;;;;14.43;62.28;101065.16;5053674;28;20051;-82
2023/04/28 08:25:17;;;;;;;0.30;0.30;;;;;;;14.47;62.98;101066.78;5057566;28;20032;-80
2023/04/28 08:27:43;;;;;;;0.63;0.63;;;;;;;14.50;63.04;101066.66;5049647;28;20029;-84
2023/04/28 08:30:09;;;;;;;0.50;0.50;;;;;;;14.54;62.62;101065.66;5065084;28;20032;-84
2023/04/28 08:32:36;;;;;;;0.10;0.10;;;;;;;14.58;62.33;101074.44;5063413;28;20036;-84
2023/04/28 08:35:02;;;;;;;0.10;0.10;;;;;;;14.62;63.86;101076.06;5059416;28;20029;-81
2023/04/28 08:37:28;;;;;;;0.10;0.10;;;;;;;14.67;63.24;101073.28;5060632;28;20124;-81
2023/04/28 08:40:00;;;;;;;1.75;0.70;;;;;;;14.71;63.86;101069.59;5061257;28;20061;-82
2023/04/28 08:42:31;;;;;;;0.22;0.22;;;;;;;14.75;62.45;101073.88;5064035;28;20039;-82
2023/04/28 08:44:58;;;;;;;0.35;0.35;;;;;;;14.74;63.48;101053.47;5068587;28;20028;-82
2023/04/28 08:47:32;;;;;;;0.10;0.10;;;;;;;14.81;62.20;101060.34;5064462;28;20033;-82
2023/04/28 08:50:04;;;;;;;1.33;1.23;;;;;;;14.84;64.11;101054.91;5064179;28;20036;-80
2023/04/28 08:52:33;;;;;;;0.00;0.00;;;;;;;14.88;63.55;101058.34;5062834;28;20036;-85
2023/04/28 08:55:04;;;;;;;0.30;0.30;;;;;;;14.93;63.04;101058.16;5062256;28;20025;-88
2023/04/28 09:00:18;;;;;;;0.13;0.13;;;;;;;15.05;63.45;101052.41;5088443;27;20422;-82
2023/04/28 09:02:45;;;;;;;0.55;0.55;;;;;;;15.12;62.92;101047.75;5050118;28;20026;-84
2023/04/28 09:05:12;;;;;;;0.10;0.10;;;;;;;15.19;63.83;101050.13;5049626;28;20022;-83
2023/04/28 09:07:39;;;;;;;0.13;0.13;;;;;;;15.22;65.41;101051.81;5056826;28;20052;-82
2023/04/28 09:10:22;;;;;;;0.65;0.65;;;;;;;15.40;62.89;101052.94;5051680;28;20041;-84
2023/04/28 09:12:53;;;;;;;0.40;0.40;;;;;;;15.43;63.42;101043.97;5048571;28;20518;-84
2023/04/28 09:15:37;;;;;;;0.30;0.30;;;;;;;15.56;64.50;101053.22;5055233;28;20033;-84
2023/04/28 09:18:05;;;;;;;0.10;0.10;;;;;;;15.59;65.02;101041.56;5044092;28;20414;-84
2023/04/28 09:20:32;;;;;;;0.10;0.10;;;;;;;15.69;64.87;101043.84;5049260;28;20036;-83
2023/04/28 09:23:20;;;;;;;0.10;0.10;;;;;;;15.88;63.93;101043.16;5049556;28;20490;-84
2023/04/28 09:26:03;;;;;;;0.10;0.10;;;;;;;15.94;64.14;101031.38;5041913;28;20026;-84
2023/04/28 09:28:30;;;;;;;0.17;0.17;;;;;;;15.91;63.45;101031.47;5052462;28;20029;-85
2023/04/28 09:30:57;;;;;;;0.10;0.10;;;;;;;15.90;63.99;101035.97;5053514;28;20040;-85
2023/04/28 09:33:23;;;;;;;0.10;0.10;;;;;;;15.94;64.28;101032.22;5052786;28;20024;-84
2023/04/28 09:35:50;;;;;;;0.10;0.10;;;;;;;16.00;63.71;101037.34;5057182;28;20025;-84
2023/04/28 09:38:17;;;;;;;0.57;0.35;;;;;;;16.04;63.97;101037.19;5059355;28;20018;-83
2023/04/28 09:43:32;;;;;;;0.15;0.15;;;;;;;16.09;63.65;101041.44;5108696;27;20370;-86
2023/04/28 09:46:01;;;;;;;0.40;0.30;;;;;;;16.04;63.99;101042.53;5102159;28;20024;-85
2023/04/28 09:51:08;;;;;;;0.35;0.35;;;;;;;16.03;64.36;101036.34;5084305;28;20406;-84
2023/04/28 09:53:35;;;;;;;0.10;0.10;;;;;;;16.05;63.91;101033.59;5050665;28;20065;-84
2023/04/28 09:56:03;;;;;;;0.40;0.40;;;;;;;16.07;64.13;101035.28;5047666;28;20025;-84
2023/04/28 09:58:33;;;;;;;0.35;0.35;;;;;;;16.05;64.57;101038.94;5048593;28;20029;-84
2023/04/28 10:01:00;;;;;;;3.95;1.20;;;;;;;16.09;64.59;101046.78;5045312;28;20104;-84
2023/04/28 10:03:28;;;;;;;0.10;0.10;;;;;;;16.17;64.71;101039.34;5050484;28;20495;-84
2023/04/28 10:05:55;;;;;;;1.80;0.95;;;;;;;16.16;64.60;101042.94;5050816;28;20029;-83
2023/04/28 10:08:23;;;;;;;0.25;0.25;;;;;;;16.22;64.61;101047.16;5049803;28;20037;-83
2023/04/28 10:10:53;;;;;;;0.15;0.15;;;;;;;16.21;64.88;101042.72;5050390;28;20458;-84
2023/04/28 10:13:20;;;;;;;0.10;0.10;;;;;;;16.36;64.64;101043.91;5048365;28;20025;-82
2023/04/28 10:15:47;;;;;;;0.00;0.00;;;;;;;16.43;64.96;101047.22;5047016;28;20490;-83
2023/04/28 10:18:14;;;;;;;0.10;0.10;;;;;;;16.53;64.88;101034.34;5041875;28;20092;-84
2023/04/28 10:20:46;;;;;;;0.70;0.70;;;;;;;16.65;65.08;101039.19;5048064;28;20036;-83
2023/04/28 10:23:52;;;;;;;0.17;0.17;;;;;;;16.74;64.63;101035.25;5050995;28;20029;-83
2023/04/28 10:26:20;;;;;;;0.10;0.10;;;;;;;16.75;64.44;101036.97;5051005;28;20029;-83
2023/04/28 10:28:48;;;;;;;0.30;0.30;;;;;;;16.80;64.30;101035.84;5050600;28;20089;-83
2023/04/28 10:31:19;;;;;;;0.50;0.50;;;;;;;16.85;64.13;101040.09;5049721;28;20140;-83
2023/04/28 10:33:46;;;;;;;0.10;0.10;;;;;;;16.91;64.18;101043.44;5047438;28;20268;-84
2023/04/28 10:36:54;;;;;;;5.78;1.48;;;;;;;16.87;64.51;101046.28;5052739;28;20063;-84
2023/04/28 10:39:20;;;;;;;0.00;0.00;;;;;;;16.77;64.53;101045.78;5035254;28;20029;-84
2023/04/28 10:41:47;;;;;;;0.10;0.10;;;;;;;16.70;64.57;101058.56;5045417;28;20048;-84
2023/04/28 10:47:08;;;;;;;0.10;0.10;;;;;;;16.49;65.81;101053.19;5058667;28;20414;-84
2023/04/28 10:55:32;;;;;;;0.57;0.57;;;;;;;16.60;66.00;101074.13;5085516;27;20384;-84
2023/04/28 11:04:11;;;;;;;0.10;0.10;;;;;;;16.43;66.51;101061.44;5068148;28;20413;-83
2023/04/28 11:06:40;;;;;;;0.10;0.10;;;;;;;16.41;66.38;101052.63;5044580;28;20025;-84
2023/04/28 11:12:05;;;;;;;0.20;0.20;;;;;;;16.42;66.47;101065.06;5103669;27;1177614;-84
2023/04/28 11:14:33;;;;;;;0.10;0.10;;;;;;;16.31;66.55;101056.59;5116117;28;20034;-84
2023/04/28 11:17:03;;;;;;;0.10;0.10;;;;;;;16.29;66.68;101063.84;5125409;27;20088;-84
2023/04/28 11:19:32;;;;;;;0.00;0.00;;;;;;;16.21;66.88;101061.44;5118622;27;20035;-83
2023/04/28 11:22:02;;;;;;;0.10;0.10;;;;;;;16.25;66.57;101060.41;5120727;28;20707;-83
2023/04/28 11:24:29;;;;;;;0.10;0.10;;;;;;;16.14;67.23;101055.50;5118055;28;20023;-84
2023/04/28 11:26:56;;;;;;;0.08;0.08;;;;;;;16.22;67.37;101057.84;5122337;28;20031;-84
2023/04/28 11:29:39;;;;;;;0.10;0.10;;;;;;;16.28;67.10;101056.75;5115571;27;20298;-83
2023/04/28 11:32:07;;;;;;;0.10;0.10;;;;;;;16.29;66.86;101069.19;5132564;28;20019;-83
2023/04/28 11:34:35;;;;;;;0.20;0.20;;;;;;;16.20;67.16;101070.44;5125400;28;20039;-83
2023/04/28 11:37:01;;;;;;;0.10;0.10;;;;;;;16.15;66.87;101062.56;5126852;27;20028;-83
2023/04/28 11:39:30;;;;;;;0.10;0.10;;;;;;;16.20;66.89;101065.06;5128675;27;20032;-83
2023/04/28 11:41:58;;;;;;;0.10;0.10;;;;;;;16.25;67.45;101072.88;5121341;27;20023;-83
2023/04/28 11:44:26;;;;;;;0.08;0.08;;;;;;;16.28;67.06;101064.75;5125333;27;20027;-82
2023/04/28 11:46:56;;;;;;;0.10;0.10;;;;;;;16.29;67.51;101069.19;5116321;27;20214;-83
2023/04/28 11:49:23;;;;;;;0.00;0.00;;;;;;;16.29;67.27;101071.84;5122834;28;20027;-83
2023/04/28 11:51:50;;;;;;;0.03;0.03;;;;;;;16.30;67.55;101074.47;5131569;27;20140;-82
2023/04/28 11:54:25;;;;;;;0.10;0.10;;;;;;;16.29;67.48;101075.38;5123802;28;20019;-83